Time;durP1;ratioP1;P1;durP2;ratioP2;P2;SDS_P1;SDS_P2;PMS_P1;PMS_P2;Temp;Humidity;BMP_temperature;BMP_pressure;BME280_temperature;BME280_humidity;BME280_pressure;Samples;Min_cycle;Max_cycle;Signal;HPM_P1;HPM_P2
2024/02/09 00:00:57;;;;;;;9.33;3.90;;;16.20;58.80;;;;;;5040176;28;20426;-63
2024/02/09 00:03:26;;;;;;;10.73;4.93;;;16.20;58.80;;;;;;5040743;28;20440;-69
2024/02/09 00:05:52;;;;;;;10.47;4.57;;;16.30;58.80;;;;;;5042899;28;20463;-63
2024/02/09 00:08:22;;;;;;;10.80;4.37;;;16.30;58.70;;;;;;5042557;28;20444;-67
2024/02/09 00:10:49;;;;;;;7.47;3.63;;;16.30;58.90;;;;;;5044110;28;21135;-66
2024/02/09 00:13:18;;;;;;;11.10;4.20;;;16.10;59.30;;;;;;5040849;28;21469;-67
2024/02/09 00:15:48;;;;;;;11.70;4.20;;;16.20;59.20;;;;;;5042786;28;20443;-66
2024/02/09 00:18:15;;;;;;;13.40;4.10;;;16.20;59.20;;;;;;5043831;28;20439;-67
2024/02/09 00:20:51;;;;;;;12.90;3.40;;;16.20;58.90;;;;;;5043061;28;20505;-63
2024/02/09 00:23:20;;;;;;;10.60;4.30;;;16.10;59.30;;;;;;5040730;28;20448;-66
2024/02/09 00:25:49;;;;;;;10.53;3.73;;;16.00;59.60;;;;;;5040120;28;20464;-61
2024/02/09 00:28:15;;;;;;;9.40;3.87;;;15.80;60.20;;;;;;5041268;28;20443;-71
2024/02/09 00:30:41;;;;;;;12.57;4.33;;;15.50;61.10;;;;;;5044315;28;21046;-64
2024/02/09 00:33:08;;;;;;;10.23;3.97;;;15.40;61.90;;;;;;5042247;28;20518;-65
2024/02/09 00:35:35;;;;;;;9.50;4.87;;;15.20;62.10;;;;;;5038256;28;20423;-63
2024/02/09 00:38:02;;;;;;;10.37;3.73;;;15.40;62.30;;;;;;5043376;28;20787;-67
2024/02/09 00:40:31;;;;;;;9.50;4.00;;;15.50;62.10;;;;;;5041208;28;20954;-63
2024/02/09 00:43:01;;;;;;;8.73;3.73;;;15.70;61.30;;;;;;5041868;28;20488;-68
2024/02/09 00:45:30;;;;;;;9.63;3.73;;;16.00;60.70;;;;;;5042847;28;20447;-64
2024/02/09 00:48:03;;;;;;;10.43;3.30;;;15.90;60.90;;;;;;5042532;28;20443;-68
2024/02/09 00:50:30;;;;;;;8.10;2.90;;;15.70;61.20;;;;;;5042399;28;20475;-63
2024/02/09 00:53:00;;;;;;;9.10;3.63;;;15.60;61.40;;;;;;5042240;28;20463;-64
2024/02/09 00:55:29;;;;;;;7.40;3.80;;;15.70;61.70;;;;;;5041132;28;20822;-64
2024/02/09 00:57:58;;;;;;;5.50;3.53;;;15.90;62.00;;;;;;5040609;28;20519;-65
2024/02/09 01:00:25;;;;;;;9.30;3.10;;;16.00;60.80;;;;;;5037251;28;20439;-70
2024/02/09 01:02:51;;;;;;;10.63;3.97;;;15.90;61.00;;;;;;5038362;28;21046;-70
2024/02/09 01:05:18;;;;;;;8.20;3.27;;;15.90;61.10;;;;;;5048268;28;20519;-63
2024/02/09 01:07:45;;;;;;;7.60;3.70;;;15.90;61.20;;;;;;5048536;28;20208;-65
2024/02/09 01:10:11;;;;;;;8.53;2.90;;;15.70;61.60;;;;;;5050467;28;20474;-64
2024/02/09 02:45:42;;;;;;;5.80;3.70;;;16.20;63.50;;;;;;5040527;28;20432;-64
2024/02/09 03:04:36;;;;;;;5.23;2.57;;;16.00;65.60;;;;;;5029718;28;20454;-67
2024/02/09 03:07:02;;;;;;;7.03;2.30;;;16.00;66.00;;;;;;5044941;28;20799;-62
2024/02/09 03:09:29;;;;;;;6.23;2.60;;;16.00;66.20;;;;;;5045045;28;20842;-70
2024/02/09 03:11:57;;;;;;;3.13;2.17;;;15.80;66.60;;;;;;5043258;28;21162;-65
2024/02/09 03:14:27;;;;;;;4.57;2.63;;;15.70;67.10;;;;;;5045360;28;20451;-69
2024/02/09 03:16:54;;;;;;;3.20;2.40;;;15.50;67.80;;;;;;5047279;28;20470;-68
2024/02/09 03:19:20;;;;;;;4.03;2.30;;;15.50;68.30;;;;;;5046342;28;20509;-67
2024/02/09 03:21:46;;;;;;;5.37;2.20;;;15.60;68.60;;;;;;5044000;28;20448;-66
2024/02/09 03:24:11;;;;;;;3.80;2.20;;;15.50;68.30;;;;;;5041214;28;20279;-65
2024/02/09 03:26:37;;;;;;;4.20;3.20;;;15.60;68.30;;;;;;5043726;28;20209;-64
2024/02/09 03:29:03;;;;;;;6.73;3.17;;;15.60;68.70;;;;;;5044912;28;20669;-66
2024/02/09 03:31:31;;;;;;;6.87;2.20;;;15.50;69.10;;;;;;5038898;28;20255;-64
2024/02/09 03:33:57;;;;;;;3.60;2.37;;;15.40;69.80;;;;;;5042087;28;20682;-70
2024/02/09 03:36:23;;;;;;;2.73;2.53;;;15.20;70.60;;;;;;5042781;28;20466;-67
2024/02/09 03:38:49;;;;;;;6.70;2.70;;;15.00;72.00;;;;;;5042540;28;20610;-64
2024/02/09 03:41:15;;;;;;;4.00;2.30;;;15.10;72.00;;;;;;5043804;28;20239;-63
2024/02/09 03:43:40;;;;;;;5.53;2.53;;;15.10;72.10;;;;;;5039624;28;20412;-65
2024/02/09 03:46:06;;;;;;;8.37;2.57;;;15.20;72.10;;;;;;5039415;28;20204;-65
2024/02/09 03:48:34;;;;;;;3.57;2.30;;;15.20;71.90;;;;;;5043462;28;20610;-65
2024/02/09 03:51:01;;;;;;;6.40;2.60;;;15.20;72.10;;;;;;5043185;28;20208;-65
2024/02/09 03:53:30;;;;;;;4.50;2.53;;;15.10;72.60;;;;;;5044646;28;20837;-67
2024/02/09 03:55:56;;;;;;;4.90;2.67;;;15.10;73.80;;;;;;5040668;28;20872;-66
2024/02/09 03:58:21;;;;;;;8.30;3.30;;;15.10;73.70;;;;;;5043738;28;20452;-63
2024/02/09 04:00:47;;;;;;;4.30;2.97;;;15.00;73.90;;;;;;5042968;28;20962;-66
2024/02/09 04:03:13;;;;;;;8.97;3.10;;;14.90;74.40;;;;;;5042676;28;20209;-65
2024/02/09 04:05:39;;;;;;;7.30;3.63;;;14.90;74.50;;;;;;5042490;28;20195;-67
2024/02/09 04:08:05;;;;;;;12.87;3.70;;;14.70;75.70;;;;;;5043041;28;20435;-64
2024/02/09 04:10:30;;;;;;;6.37;2.90;;;14.60;76.50;;;;;;5041528;28;20254;-64
2024/02/09 04:12:58;;;;;;;7.03;3.90;;;14.50;77.40;;;;;;5041991;28;20451;-65
2024/02/09 04:15:24;;;;;;;4.40;2.80;;;14.40;78.00;;;;;;5044551;28;20188;-66
2024/02/09 04:17:51;;;;;;;4.17;3.23;;;14.20;79.00;;;;;;5041747;28;20450;-67
2024/02/09 04:20:17;;;;;;;4.73;2.53;;;14.20;79.30;;;;;;5041293;28;22475;-64
2024/02/09 04:22:43;;;;;;;5.73;2.20;;;14.40;78.10;;;;;;5042531;28;20450;-65
2024/02/09 04:25:08;;;;;;;3.63;2.10;;;14.30;78.30;;;;;;5042815;28;20272;-65
2024/02/09 04:27:34;;;;;;;3.67;2.20;;;14.20;78.70;;;;;;5046390;28;20191;-65
2024/02/09 04:30:00;;;;;;;2.63;1.83;;;14.00;80.00;;;;;;5044371;28;20295;-66
2024/02/09 04:32:25;;;;;;;3.30;2.70;;;14.00;80.40;;;;;;5040676;28;20196;-64
2024/02/09 04:34:51;;;;;;;4.87;2.17;;;14.10;80.40;;;;;;5043617;28;20245;-65
2024/02/09 04:37:21;;;;;;;5.27;2.27;;;14.00;80.00;;;;;;5041590;28;20339;-65
2024/02/09 04:39:49;;;;;;;6.33;2.27;;;14.00;80.10;;;;;;5039169;28;20209;-63
2024/02/09 04:42:15;;;;;;;4.40;2.43;;;14.10;80.20;;;;;;5044815;28;20776;-65
2024/02/09 04:44:41;;;;;;;3.57;2.20;;;14.10;80.20;;;;;;5043750;28;20438;-64
2024/02/09 04:47:06;;;;;;;5.00;2.33;;;14.00;79.50;;;;;;5042896;28;20691;-63
2024/02/09 04:49:32;;;;;;;3.10;2.37;;;14.10;79.90;;;;;;5044286;28;20510;-65
2024/02/09 04:51:57;;;;;;;6.77;2.00;;;14.40;78.30;;;;;;5039386;28;20201;-69
2024/02/09 04:54:24;;;;;;;5.20;2.40;;;14.70;76.80;;;;;;5041681;28;20177;-66
2024/02/09 04:56:50;;;;;;;3.37;1.40;;;14.90;74.80;;;;;;5038261;28;20198;-64
2024/02/09 04:59:15;;;;;;;2.10;1.50;;;15.00;74.30;;;;;;5041500;28;20432;-65
2024/02/09 05:01:41;;;;;;;2.50;1.80;;;14.90;73.80;;;;;;5042498;28;20564;-64
2024/02/09 05:04:14;;;;;;;6.33;1.70;;;15.00;73.50;;;;;;5041417;28;20185;-65
2024/02/09 05:06:40;;;;;;;3.07;1.60;;;15.10;72.40;;;;;;5041310;28;20590;-66
2024/02/09 05:09:08;;;;;;;1.40;1.30;;;15.10;71.90;;;;;;5040732;28;21142;-63
2024/02/09 05:11:36;;;;;;;1.97;1.47;;;15.00;71.20;;;;;;5045049;28;20188;-65
2024/02/09 05:14:04;;;;;;;1.80;1.40;;;14.90;71.30;;;;;;5037403;28;20939;-64
2024/02/09 05:16:30;;;;;;;2.80;1.50;;;15.00;71.20;;;;;;5038475;28;20436;-67
2024/02/09 05:18:56;;;;;;;2.23;1.40;;;14.70;71.30;;;;;;5035706;28;20458;-63
2024/02/09 05:21:21;;;;;;;4.17;1.70;;;14.70;72.00;;;;;;5032205;28;20287;-64
2024/02/09 05:23:47;;;;;;;2.47;1.60;;;15.10;71.40;;;;;;5041529;28;20176;-63
2024/02/09 05:26:13;;;;;;;9.37;1.67;;;15.10;70.20;;;;;;5047927;28;20224;-65
2024/02/09 05:28:41;;;;;;;3.23;1.30;;;15.10;70.00;;;;;;5049259;28;20644;-64
2024/02/09 05:31:17;;;;;;;2.80;1.90;;;15.00;70.10;;;;;;5043663;28;20498;-63
2024/02/09 05:33:44;;;;;;;2.30;1.37;;;15.10;70.20;;;;;;5034368;28;20431;-64
2024/02/09 05:36:19;;;;;;;2.60;1.50;;;15.20;69.70;;;;;;5044015;28;20573;-66
2024/02/09 05:38:45;;;;;;;1.57;1.47;;;15.30;69.00;;;;;;5041384;28;20811;-64
2024/02/09 05:41:11;;;;;;;5.97;1.80;;;15.30;68.70;;;;;;5040634;28;20478;-66
2024/02/09 05:43:37;;;;;;;3.57;2.10;;;15.40;68.70;;;;;;5043129;28;20446;-64
2024/02/09 05:46:02;;;;;;;3.80;1.80;;;15.40;68.10;;;;;;5041318;28;20454;-66
2024/02/09 05:48:28;;;;;;;2.40;1.70;;;15.50;67.60;;;;;;5038398;28;20199;-63
2024/02/09 05:50:53;;;;;;;1.27;1.17;;;15.50;67.40;;;;;;5040687;28;20238;-68
2024/02/09 05:53:19;;;;;;;2.43;1.53;;;15.40;67.00;;;;;;5040828;28;22030;-63
2024/02/09 05:55:48;;;;;;;1.70;1.37;;;15.40;67.30;;;;;;5039936;28;20653;-66
2024/02/09 05:58:13;;;;;;;2.70;1.50;;;15.30;67.50;;;;;;5039785;28;20657;-61
2024/02/09 06:00:39;;;;;;;4.80;1.60;;;15.40;66.90;;;;;;5041762;28;20424;-65
2024/02/09 06:03:08;;;;;;;3.67;1.30;;;15.40;67.00;;;;;;5038976;28;20965;-65
2024/02/09 06:05:33;;;;;;;1.87;1.40;;;15.30;66.90;;;;;;5038650;28;20185;-64
2024/02/09 06:08:02;;;;;;;2.50;1.50;;;15.30;66.90;;;;;;5038993;28;20500;-63
2024/02/09 06:10:28;;;;;;;1.40;1.17;;;15.30;67.10;;;;;;5041657;28;20208;-63
2024/02/09 06:12:54;;;;;;;1.17;1.10;;;15.40;67.00;;;;;;5039919;28;21113;-68
2024/02/09 06:15:19;;;;;;;2.10;1.53;;;15.20;66.90;;;;;;5038728;28;20177;-64
2024/02/09 06:17:46;;;;;;;2.47;1.37;;;15.30;67.30;;;;;;5041331;28;20498;-67
2024/02/09 06:20:12;;;;;;;1.93;1.10;;;15.30;67.00;;;;;;5040695;28;20193;-64
2024/02/09 06:22:38;;;;;;;4.10;1.70;;;15.40;66.40;;;;;;5041488;28;20859;-63
2024/02/09 06:25:05;;;;;;;1.73;1.63;;;15.40;66.40;;;;;;5040696;28;20434;-63
2024/02/09 06:27:30;;;;;;;1.90;1.40;;;15.50;66.10;;;;;;5041689;28;20209;-66
2024/02/09 06:29:58;;;;;;;4.10;1.20;;;15.70;65.60;;;;;;5040378;28;20479;-63
2024/02/09 06:32:24;;;;;;;1.93;1.47;;;15.60;65.20;;;;;;5041730;28;20188;-68
2024/02/09 06:34:53;;;;;;;1.90;1.10;;;15.70;64.80;;;;;;5039872;28;20506;-64
2024/02/09 06:37:19;;;;;;;3.63;1.40;;;15.70;64.50;;;;;;5040801;28;20204;-65
2024/02/09 06:39:46;;;;;;;1.20;1.10;;;15.80;64.20;;;;;;5042316;28;20447;-67
2024/02/09 06:42:12;;;;;;;1.20;1.10;;;15.70;64.20;;;;;;5039066;28;20952;-66
2024/02/09 06:44:43;;;;;;;1.50;1.20;;;15.60;64.50;;;;;;5039327;28;20427;-66
2024/02/09 06:47:12;;;;;;;1.03;0.83;;;15.60;64.40;;;;;;5039247;28;20208;-64
2024/02/09 06:49:43;;;;;;;2.00;1.30;;;15.70;64.20;;;;;;5036460;28;20598;-65
2024/02/09 06:52:09;;;;;;;1.27;1.17;;;15.80;63.40;;;;;;5035072;28;21026;-63
2024/02/09 06:54:34;;;;;;;1.20;1.10;;;15.90;63.50;;;;;;5041854;28;20461;-64
2024/02/09 06:57:00;;;;;;;2.50;1.37;;;15.70;63.70;;;;;;5037837;28;20208;-63
2024/02/09 06:59:26;;;;;;;5.70;1.00;;;15.80;63.80;;;;;;5035974;28;20646;-64
2024/02/09 07:01:52;;;;;;;1.23;1.00;;;15.90;63.40;;;;;;5033607;28;20216;-61
2024/02/09 07:04:18;;;;;;;1.47;1.00;;;16.00;62.80;;;;;;5041444;28;20447;-63
2024/02/09 07:06:47;;;;;;;5.57;1.00;;;15.90;62.50;;;;;;5044216;28;20211;-66
2024/02/09 07:09:20;;;;;;;1.63;1.10;;;16.00;62.40;;;;;;5040020;28;20871;-65
2024/02/09 07:11:53;;;;;;;2.80;1.20;;;16.10;62.00;;;;;;5038400;28;20450;-64
2024/02/09 07:14:19;;;;;;;1.10;1.00;;;16.00;61.80;;;;;;5037833;28;20447;-63
2024/02/09 07:16:46;;;;;;;1.60;1.07;;;16.10;61.70;;;;;;5037533;28;21110;-64
2024/02/09 07:19:12;;;;;;;1.10;1.00;;;16.10;61.40;;;;;;5043121;28;20438;-64
2024/02/09 07:21:38;;;;;;;1.90;1.00;;;15.80;61.50;;;;;;5032697;28;20416;-65
2024/02/09 07:24:04;;;;;;;1.30;1.07;;;15.90;61.80;;;;;;5037480;28;20480;-67
2024/02/09 07:26:30;;;;;;;1.50;1.27;;;16.00;61.60;;;;;;5033456;28;20474;-65
2024/02/09 07:28:57;;;;;;;1.00;0.90;;;16.00;61.50;;;;;;5036064;28;20435;-64
2024/02/09 07:31:23;;;;;;;1.57;1.00;;;16.00;61.70;;;;;;5035555;28;20462;-61
2024/02/09 07:33:48;;;;;;;2.70;1.20;;;15.90;61.20;;;;;;5033887;28;20432;-65
2024/02/09 07:36:14;;;;;;;1.37;1.27;;;15.80;61.70;;;;;;5045876;28;20700;-67
2024/02/09 07:38:40;;;;;;;1.70;1.17;;;16.00;62.10;;;;;;5037390;28;20597;-66
2024/02/09 07:41:10;;;;;;;3.93;1.13;;;16.20;61.40;;;;;;5037484;28;20419;-64
2024/02/09 07:43:36;;;;;;;2.97;1.30;;;15.90;60.30;;;;;;5038954;28;20217;-64
2024/02/09 07:46:01;;;;;;;2.20;1.17;;;15.60;61.60;;;;;;5040372;28;20592;-63
2024/02/09 07:48:28;;;;;;;4.10;1.23;;;15.90;61.70;;;;;;5036913;28;20200;-67
2024/02/09 07:50:55;;;;;;;1.57;1.37;;;16.00;61.10;;;;;;5046567;28;20217;-68
2024/02/09 07:53:20;;;;;;;1.67;0.90;;;16.00;60.70;;;;;;5038623;28;20416;-65
2024/02/09 07:55:46;;;;;;;3.00;1.10;;;16.10;60.60;;;;;;5044482;28;20451;-64
2024/02/09 07:58:11;;;;;;;6.20;1.00;;;16.20;60.70;;;;;;5040163;28;20187;-60
2024/02/09 08:00:37;;;;;;;1.60;1.50;;;16.30;60.10;;;;;;5039173;28;20185;-61
2024/02/09 08:03:02;;;;;;;1.93;0.87;;;16.30;59.90;;;;;;5042343;28;20678;-65
2024/02/09 08:05:28;;;;;;;3.60;1.10;;;16.20;59.90;;;;;;5041711;28;20692;-65
2024/02/09 08:07:54;;;;;;;1.17;0.90;;;16.20;59.80;;;;;;5044611;28;20192;-67
2024/02/09 08:10:19;;;;;;;1.50;1.40;;;16.30;59.80;;;;;;5042805;28;20683;-63
2024/02/09 08:12:45;;;;;;;2.23;1.60;;;16.50;59.50;;;;;;5040233;28;20335;-65
2024/02/09 08:15:11;;;;;;;1.20;1.10;;;16.70;59.40;;;;;;5045148;28;20185;-66
2024/02/09 08:17:52;;;;;;;2.20;1.27;;;16.80;59.30;;;;;;5036340;28;20458;-64
2024/02/09 08:20:19;;;;;;;1.40;1.23;;;16.80;59.20;;;;;;5039478;28;20444;-62
2024/02/09 08:22:48;;;;;;;1.87;1.67;;;16.70;59.00;;;;;;5040296;28;20432;-65
2024/02/09 08:25:14;;;;;;;1.70;1.10;;;16.90;58.90;;;;;;5040870;28;21230;-60
2024/02/09 08:27:40;;;;;;;2.40;1.20;;;16.80;58.50;;;;;;5036596;28;20814;-62
2024/02/09 08:30:09;;;;;;;1.50;1.40;;;16.70;58.70;;;;;;5042668;28;20463;-63
2024/02/09 08:32:37;;;;;;;5.17;3.07;;;16.90;58.70;;;;;;5042517;28;20811;-64
2024/02/09 08:35:03;;;;;;;1.60;1.47;;;17.00;58.80;;;;;;5046496;28;20484;-61
2024/02/09 08:37:29;;;;;;;1.90;1.47;;;17.10;58.70;;;;;;5041010;28;20475;-66
2024/02/09 08:39:58;;;;;;;2.23;2.03;;;17.30;58.60;;;;;;5041173;28;20431;-64
2024/02/09 08:42:24;;;;;;;1.87;1.37;;;17.40;58.40;;;;;;5034841;28;20185;-67
2024/02/09 08:44:50;;;;;;;2.03;1.30;;;17.50;58.20;;;;;;5034423;28;20435;-63
2024/02/09 08:47:16;;;;;;;3.30;1.27;;;17.60;58.20;;;;;;5031937;28;20471;-60
2024/02/09 08:49:43;;;;;;;0.90;0.90;;;17.70;58.20;;;;;;5042355;28;20475;-63
2024/02/09 08:52:09;;;;;;;2.10;1.57;;;17.80;58.20;;;;;;5036587;28;20194;-63
2024/02/09 08:54:35;;;;;;;3.50;1.50;;;17.80;58.10;;;;;;5038228;28;20435;-66
2024/02/09 08:57:01;;;;;;;1.60;1.50;;;17.90;58.30;;;;;;5039814;28;20450;-67
2024/02/09 08:59:27;;;;;;;2.80;1.30;;;17.90;58.30;;;;;;5041906;28;21041;-65
2024/02/09 09:01:53;;;;;;;3.23;1.73;;;17.80;57.90;;;;;;5039499;28;20197;-62
2024/02/09 09:04:19;;;;;;;3.03;1.97;;;17.60;58.80;;;;;;5041724;28;20451;-65
2024/02/09 09:06:45;;;;;;;2.80;1.77;;;17.60;59.00;;;;;;5041931;28;20956;-63
2024/02/09 09:09:14;;;;;;;2.50;1.50;;;17.60;59.20;;;;;;5045954;28;20272;-63
2024/02/09 09:11:40;;;;;;;2.23;1.83;;;17.60;59.30;;;;;;5043225;28;20184;-62
2024/02/09 09:14:05;;;;;;;5.17;2.37;;;17.80;59.30;;;;;;5037943;28;20555;-69
2024/02/09 09:16:31;;;;;;;3.70;2.70;;;17.90;59.20;;;;;;5038323;28;20216;-65
2024/02/09 09:18:57;;;;;;;5.00;3.10;;;18.00;59.40;;;;;;5038146;28;20188;-64
2024/02/09 09:21:22;;;;;;;3.70;2.00;;;18.10;59.50;;;;;;5035088;28;20219;-66
2024/02/09 09:23:48;;;;;;;2.50;1.83;;;18.10;59.50;;;;;;5038871;28;20193;-66
2024/02/09 09:26:14;;;;;;;2.47;2.27;;;18.20;59.40;;;;;;5037264;28;20201;-65
2024/02/09 09:28:40;;;;;;;1.60;1.40;;;18.30;59.60;;;;;;5040787;28;20184;-66
2024/02/09 09:31:06;;;;;;;3.67;2.60;;;18.30;59.60;;;;;;5043139;28;20503;-67
2024/02/09 09:33:34;;;;;;;5.37;1.80;;;18.40;59.70;;;;;;5040581;28;20436;-63
2024/02/09 09:36:02;;;;;;;2.20;1.80;;;18.40;59.40;;;;;;5040856;28;20212;-70
2024/02/09 09:38:28;;;;;;;2.53;1.70;;;18.40;59.40;;;;;;5035728;28;21045;-64
2024/02/09 09:40:54;;;;;;;2.80;1.77;;;18.30;59.00;;;;;;5040251;28;20442;-69
2024/02/09 09:43:22;;;;;;;3.13;1.73;;;18.00;59.40;;;;;;5033283;28;20197;-66
2024/02/09 09:45:52;;;;;;;2.93;1.60;;;18.10;59.60;;;;;;5039358;28;20538;-63
2024/02/09 09:48:18;;;;;;;2.23;1.67;;;17.90;59.70;;;;;;5035059;28;20443;-68
2024/02/09 09:50:44;;;;;;;4.20;1.70;;;18.10;59.50;;;;;;5042029;28;20502;-65
2024/02/09 09:53:16;;;;;;;2.73;2.03;;;18.30;58.60;;;;;;5036615;28;21047;-64
2024/02/09 09:55:45;;;;;;;3.33;1.63;;;18.40;58.20;;;;;;5039405;28;20203;-66
2024/02/09 09:58:11;;;;;;;1.50;1.40;;;18.60;57.40;;;;;;5036539;28;20525;-63
2024/02/09 10:00:40;;;;;;;2.10;1.50;;;18.60;56.90;;;;;;5038430;28;20440;-65
2024/02/09 10:03:07;;;;;;;3.10;1.77;;;18.50;57.40;;;;;;5039226;28;20447;-64
2024/02/09 10:05:35;;;;;;;2.67;1.87;;;18.50;57.10;;;;;;5034894;28;20436;-63
2024/02/09 10:08:01;;;;;;;2.43;1.60;;;18.60;57.40;;;;;;5035092;28;20427;-63
2024/02/09 10:10:28;;;;;;;2.23;1.27;;;18.60;56.10;;;;;;5041245;28;20476;-62
2024/02/09 10:13:04;;;;;;;2.50;1.77;;;18.60;56.90;;;;;;5041802;28;20439;-67
2024/02/09 10:15:30;;;;;;;2.40;1.97;;;18.80;56.70;;;;;;5036961;28;20492;-66
2024/02/09 10:17:56;;;;;;;4.30;1.93;;;18.70;56.90;;;;;;5035678;28;20435;-63
2024/02/09 10:20:22;;;;;;;2.70;2.07;;;18.70;56.30;;;;;;5040674;28;20682;-62
2024/02/09 10:22:48;;;;;;;4.60;2.20;;;18.70;57.50;;;;;;5038011;28;20431;-67
2024/02/09 10:25:15;;;;;;;3.97;2.40;;;18.70;58.40;;;;;;5036906;28;20984;-61
2024/02/09 10:27:42;;;;;;;5.00;2.70;;;18.80;57.50;;;;;;5036406;28;20200;-68
2024/02/09 10:30:08;;;;;;;3.50;2.70;;;18.60;57.70;;;;;;5039048;28;20478;-63
2024/02/09 10:32:34;;;;;;;2.67;2.00;;;18.60;58.40;;;;;;5038574;28;20485;-63
2024/02/09 10:34:59;;;;;;;2.07;1.87;;;18.80;58.20;;;;;;5040393;28;20459;-67
2024/02/09 10:37:25;;;;;;;3.87;1.80;;;19.00;57.40;;;;;;5039622;28;20295;-63
2024/02/09 10:39:51;;;;;;;3.10;1.90;;;18.80;56.80;;;;;;5037131;28;20184;-62
2024/02/09 10:42:21;;;;;;;2.23;1.70;;;18.70;56.30;;;;;;5032816;28;20188;-66
2024/02/09 10:44:49;;;;;;;2.47;1.97;;;18.80;56.00;;;;;;5037480;28;20522;-65
2024/02/09 10:47:16;;;;;;;2.13;1.60;;;18.50;56.30;;;;;;5039287;28;20450;-64
2024/02/09 10:49:46;;;;;;;7.57;3.60;;;18.60;56.40;;;;;;5039181;28;20474;-64
2024/02/09 10:52:13;;;;;;;5.57;2.20;;;18.60;56.40;;;;;;5033698;28;20470;-62
2024/02/09 10:54:48;;;;;;;2.67;1.70;;;18.50;56.60;;;;;;5042690;28;20455;-64
2024/02/09 10:57:14;;;;;;;3.30;2.00;;;18.80;57.00;;;;;;5036063;28;20463;-63
2024/02/09 10:59:41;;;;;;;4.17;2.10;;;19.00;56.70;;;;;;5043518;28;20857;-62
2024/02/09 11:02:11;;;;;;;3.33;1.77;;;19.00;56.00;;;;;;5036790;28;20262;-64
2024/02/09 11:04:37;;;;;;;4.23;2.17;;;18.90;56.40;;;;;;5048154;28;20447;-64
2024/02/09 11:07:04;;;;;;;3.20;1.67;;;18.90;55.70;;;;;;5044710;28;20475;-63
2024/02/09 11:09:29;;;;;;;1.70;1.60;;;19.00;55.00;;;;;;5038238;28;20529;-63
2024/02/09 11:12:00;;;;;;;8.07;2.27;;;19.10;55.20;;;;;;5034494;28;20435;-65
2024/02/09 11:14:30;;;;;;;2.20;1.43;;;19.00;53.40;;;;;;5038701;28;20212;-65
2024/02/09 11:17:00;;;;;;;3.53;1.27;;;19.10;52.60;;;;;;5038881;28;20798;-63
2024/02/09 11:19:27;;;;;;;1.93;1.70;;;19.10;52.20;;;;;;5036447;28;20434;-62
2024/02/09 11:21:59;;;;;;;1.70;1.40;;;19.00;51.50;;;;;;5042147;28;20443;-60
2024/02/09 11:24:28;;;;;;;3.43;1.20;;;18.90;51.70;;;;;;5044543;28;20407;-63
2024/02/09 11:26:55;;;;;;;4.27;1.23;;;18.90;51.60;;;;;;5042936;28;20547;-66
2024/02/09 11:29:22;;;;;;;1.27;1.13;;;19.10;51.90;;;;;;5041886;28;20569;-61
2024/02/09 11:31:51;;;;;;;2.30;1.47;;;19.10;51.90;;;;;;5037023;28;20439;-70
2024/02/09 11:34:18;;;;;;;2.80;1.23;;;19.10;51.50;;;;;;5039950;28;20468;-63
2024/02/09 11:36:44;;;;;;;3.00;1.27;;;19.20;51.60;;;;;;5037905;28;20470;-67
2024/02/09 11:39:10;;;;;;;4.90;1.70;;;19.20;51.30;;;;;;5038482;28;20446;-64
2024/02/09 11:41:36;;;;;;;6.23;1.47;;;19.30;51.20;;;;;;5038299;28;20280;-71
2024/02/09 11:44:02;;;;;;;1.83;1.47;;;19.30;51.10;;;;;;5040913;28;20443;-66
2024/02/09 11:46:28;;;;;;;1.90;1.57;;;19.30;50.80;;;;;;5038652;28;20886;-69
2024/02/09 11:48:55;;;;;;;5.53;1.50;;;19.40;51.30;;;;;;5037922;28;20751;-69
2024/02/09 11:51:21;;;;;;;3.43;1.43;;;19.40;51.50;;;;;;5040853;28;20692;-62
2024/02/09 11:53:53;;;;;;;6.73;1.40;;;19.50;51.10;;;;;;5037044;28;20876;-65
2024/02/09 11:56:19;;;;;;;3.40;1.20;;;19.40;50.80;;;;;;5042621;28;20457;-64
2024/02/09 11:58:52;;;;;;;3.40;1.57;;;19.40;50.90;;;;;;5036658;28;20451;-65
2024/02/09 12:01:18;;;;;;;4.37;1.40;;;19.50;50.80;;;;;;5038016;28;20474;-63
2024/02/09 12:03:44;;;;;;;1.53;1.30;;;19.30;50.60;;;;;;5040167;28;20444;-69
2024/02/09 12:06:11;;;;;;;2.20;1.63;;;19.20;51.00;;;;;;5041135;28;20438;-65
2024/02/09 12:08:37;;;;;;;2.10;1.70;;;19.00;51.30;;;;;;5040000;28;20209;-64
2024/02/09 12:11:04;;;;;;;1.93;1.73;;;19.10;51.10;;;;;;5041681;28;20471;-64
2024/02/09 12:13:30;;;;;;;4.70;1.53;;;18.80;51.00;;;;;;5037862;28;20428;-67
2024/02/09 12:15:59;;;;;;;2.90;1.67;;;18.80;51.00;;;;;;5041812;28;20448;-67
2024/02/09 12:18:28;;;;;;;3.30;1.30;;;18.90;51.10;;;;;;5035047;28;20244;-64
2024/02/09 12:20:54;;;;;;;4.20;1.47;;;18.90;50.80;;;;;;5045356;28;20443;-67
2024/02/09 12:23:22;;;;;;;2.67;1.10;;;18.70;50.90;;;;;;5041935;28;22908;-68
2024/02/09 12:25:48;;;;;;;3.03;1.30;;;18.70;50.90;;;;;;5039164;28;20454;-64
2024/02/09 12:28:23;;;;;;;2.70;1.40;;;18.80;51.20;;;;;;5038403;28;20818;-67
2024/02/09 12:30:51;;;;;;;2.43;1.40;;;18.50;52.00;;;;;;5039097;28;20478;-68
2024/02/09 12:33:18;;;;;;;2.30;1.17;;;18.50;51.60;;;;;;5037126;28;20529;-65
2024/02/09 12:35:44;;;;;;;1.47;1.00;;;18.50;51.80;;;;;;5040125;28;20894;-67
2024/02/09 12:38:14;;;;;;;2.60;1.17;;;18.60;51.90;;;;;;5036759;28;20530;-62
2024/02/09 12:40:40;;;;;;;2.90;1.47;;;18.80;51.90;;;;;;5039715;28;20531;-64
2024/02/09 12:43:13;;;;;;;1.63;1.27;;;18.80;51.50;;;;;;5040746;28;20463;-63
2024/02/09 12:45:41;;;;;;;1.93;1.67;;;18.90;51.70;;;;;;5041048;28;20955;-65
2024/02/09 12:48:07;;;;;;;1.80;1.40;;;19.00;52.10;;;;;;5042155;28;20426;-64
2024/02/09 12:50:33;;;;;;;3.13;1.43;;;18.90;52.80;;;;;;5034499;28;20467;-64
2024/02/09 12:52:59;;;;;;;1.87;1.30;;;18.80;52.50;;;;;;5034079;28;20315;-67
2024/02/09 12:55:25;;;;;;;4.80;1.63;;;18.70;52.90;;;;;;5038639;28;20446;-67
2024/02/09 12:57:53;;;;;;;1.80;1.40;;;18.60;53.00;;;;;;5037923;28;20446;-66
2024/02/09 13:00:21;;;;;;;7.53;1.97;;;18.60;53.80;;;;;;5040766;28;20448;-69
2024/02/09 13:02:47;;;;;;;3.37;1.57;;;18.60;53.60;;;;;;5039071;28;20934;-65
2024/02/09 13:05:12;;;;;;;1.73;1.40;;;18.70;53.40;;;;;;5039429;28;20466;-67
2024/02/09 13:07:38;;;;;;;1.53;1.10;;;18.50;53.80;;;;;;5036777;28;20213;-65
2024/02/09 13:10:04;;;;;;;1.53;1.37;;;18.00;54.00;;;;;;5037172;28;20227;-66
2024/02/09 13:12:29;;;;;;;4.93;1.50;;;18.10;55.40;;;;;;5037096;28;20452;-64
2024/02/09 13:14:55;;;;;;;2.83;1.60;;;18.00;54.70;;;;;;5032818;28;20531;-67
2024/02/09 13:17:22;;;;;;;3.17;1.47;;;18.10;55.00;;;;;;5036760;28;20718;-67
2024/02/09 13:19:48;;;;;;;3.67;1.73;;;18.40;55.50;;;;;;5041765;28;20197;-64
2024/02/09 13:22:15;;;;;;;2.07;1.70;;;18.40;55.50;;;;;;5041592;28;20479;-66
2024/02/09 13:24:42;;;;;;;2.30;1.10;;;18.40;55.60;;;;;;5041408;28;20246;-65
2024/02/09 13:27:12;;;;;;;1.87;1.60;;;18.50;55.80;;;;;;5038226;28;20451;-65
2024/02/09 13:29:38;;;;;;;2.90;1.60;;;18.20;56.80;;;;;;5038789;28;20563;-66
2024/02/09 13:32:04;;;;;;;2.00;1.53;;;18.20;58.30;;;;;;5035922;28;21063;-66
2024/02/09 13:34:30;;;;;;;2.20;1.50;;;18.30;57.40;;;;;;5038480;28;20432;-65
2024/02/09 13:36:56;;;;;;;4.07;1.73;;;18.30;57.40;;;;;;5039577;28;20855;-66
2024/02/09 13:39:22;;;;;;;2.30;1.43;;;18.30;57.10;;;;;;5042134;28;20185;-66
2024/02/09 13:41:47;;;;;;;2.27;1.50;;;18.20;57.50;;;;;;5032124;28;20455;-64
2024/02/09 13:44:15;;;;;;;2.63;1.70;;;18.30;57.50;;;;;;5033460;28;20814;-67
2024/02/09 13:46:42;;;;;;;4.50;1.77;;;18.30;57.90;;;;;;5039341;28;20227;-66
2024/02/09 13:49:08;;;;;;;5.30;1.70;;;18.00;58.40;;;;;;5035822;28;20980;-65
2024/02/09 13:51:34;;;;;;;1.70;1.47;;;17.90;58.60;;;;;;5035616;28;20472;-67
2024/02/09 13:54:02;;;;;;;1.60;1.30;;;17.40;58.80;;;;;;5040680;28;20189;-65
2024/02/09 13:56:28;;;;;;;5.23;2.20;;;17.30;59.30;;;;;;5040219;28;20208;-67
2024/02/09 13:58:54;;;;;;;5.20;1.90;;;17.40;59.80;;;;;;5036225;28;20947;-67
2024/02/09 14:01:21;;;;;;;1.83;1.73;;;17.60;59.50;;;;;;5039620;28;20446;-64
2024/02/09 14:03:49;;;;;;;2.40;1.77;;;17.70;58.90;;;;;;5031951;28;20500;-66
2024/02/09 14:06:17;;;;;;;2.90;2.60;;;17.80;58.80;;;;;;5038928;28;20474;-66
2024/02/09 14:08:45;;;;;;;5.10;2.17;;;17.90;58.50;;;;;;5042553;28;20946;-65
2024/02/09 14:11:14;;;;;;;8.43;3.70;;;17.90;59.00;;;;;;5036421;28;20475;-64
2024/02/09 14:13:41;;;;;;;5.00;2.63;;;18.00;58.90;;;;;;5037998;28;20482;-64
2024/02/09 14:16:07;;;;;;;3.30;1.93;;;18.00;58.90;;;;;;5038245;28;20587;-65
2024/02/09 14:18:33;;;;;;;6.23;2.83;;;18.00;59.00;;;;;;5034394;28;20519;-65
2024/02/09 14:21:00;;;;;;;4.37;1.70;;;18.00;58.90;;;;;;5036468;28;20173;-64
2024/02/09 14:23:27;;;;;;;2.00;1.70;;;18.00;58.70;;;;;;5037940;28;20474;-65
2024/02/09 14:25:57;;;;;;;4.73;3.30;;;17.90;58.90;;;;;;5042943;28;20479;-62
2024/02/09 14:28:26;;;;;;;6.63;4.17;;;17.80;59.70;;;;;;5037431;28;20921;-63
2024/02/09 14:30:51;;;;;;;5.17;2.93;;;17.80;60.60;;;;;;5038767;28;20479;-66
2024/02/09 14:33:20;;;;;;;3.60;2.57;;;17.90;61.20;;;;;;5038113;28;20446;-65